Terminal Aerodrome Forecast
Issued by NWS Goodland, KS

Home | Current Version | Previous Version | Text Only | Print | Product List | Glossary On
Versions: 1 2 3 4 5 6 7 8 9 10 11 12
000
FTUS43 KGLD 222327
TAFGLD
TAF
KGLD 222327Z 2300/2324 23009KT P6SM SKC
     FM230600 23012KT P6SM SKC
     FM231000 27011KT P6SM SCT300
     FM231500 30014KT P6SM SCT120 SCT250
     FM231800 34019G28KT P6SM FEW060 BKN100
     FM232300 34013KT P6SM FEW030 SCT050 BKN090=

USA.gov is the U.S. government's official web portal to all federal, state and local government web resources and services.